METAR AND TAF INFORMATION

METAR FOR GCLP
ADDS - METARS form results

(2241 UTC 01 December 2022)
Data provider http://aviationweather.gov/metar/data/
 
METAR text: GCLP 012230Z 35005KT 280V030 9999 -DZ FEW035 BKN045 20/16 Q1016 NOSIG
Conditions at: GCLP (LAS PALMAS/GANDO, ES) observed 2230 UTC 01 December 2022
Temperature: 20.0°C (68°F)
Dewpoint: 16.0°C (61°F) [RH = 78%]
Pressure (altimeter): 30.00 inches Hg (1016.0 mb)
Winds: from the N (350 degrees) at 6 MPH (5 knots; 2.6 m/s)
Visibility: 6 or more miles (10+ km)
Ceiling: 4500 feet AGL
Clouds: few clouds at 3500 feet AGL
broken clouds at 4500 feet AGL
Weather: -DZ  (light drizzle)

METAR text: GCLP 012200Z 36006KT 330V030 9999 FEW035 BKN055 20/15 Q1015 NOSIG
Conditions at: GCLP (LAS PALMAS/GANDO, ES) observed 2200 UTC 01 December 2022
Temperature: 20.0°C (68°F)
Dewpoint: 15.0°C (59°F) [RH = 73%]
Pressure (altimeter): 29.97 inches Hg (1015.0 mb)
Winds: from the N (360 degrees) at 7 MPH (6 knots; 3.1 m/s)
Visibility: 6 or more miles (10+ km)
Ceiling: 5500 feet AGL
Clouds: few clouds at 3500 feet AGL
broken clouds at 5500 feet AGL
Weather: no significant weather observed at this time

Forecast for: GCLP (LAS PALMAS/GANDO, ES)
Text: TAF GCLP 012000Z 0121/0221 35011KT 9999 SCT030 TX23/0214Z TN18/0206Z
Forecast period: 2100 UTC 01 December 2022 to 2100 UTC 02 December 2022
Forecast type: FROM: standard forecast or significant change
Winds: from the N (350 degrees) at 13 MPH (11 knots; 5.7 m/s)
Visibility: 6 or more miles (10+ km)
Ceiling: at least 12,000 feet AGL
Clouds: scattered clouds at 3000 feet AGL
Weather: no significant weather forecast for this period
Text: TEMPO 0203/0205 27005KT
Forecast period: 0300 to 0500 UTC 02 December 2022
Forecast type: TEMPORARY: The following changes expected for less than half the time period
Winds: from the W (270 degrees) at 6 MPH (5 knots; 2.6 m/s)
Visibility: missing
Ceiling: unknown
Clouds: missing
Weather: no significant weather forecast for this period

 

AIRPORT MAP

 

RUNWAY INFORMATION

Runway 03L Runway length 10171 ft Runway width 148 ft
Runway elevation 78 ft Runway displaced threshold 0 ft Runway heading 22
Runway 21R Runway length 10171 ft Runway width 148 ft
Runway elevation 33 ft Runway displaced threshold 0 ft Runway heading 202
Runway 03R Runway length 10171 ft Runway width 148 ft
Runway elevation 69 ft Runway displaced threshold 0 ft Runway heading 22
Runway 21L Runway length 10171 ft Runway width 148 ft
Runway elevation 27 ft Runway displaced threshold 0 ft Runway heading 202

 

AIRPORT FREQUENCIES

Type APP Name APP Frequency 120.9 MHZ
Type ATIS Name ATIS Frequency 118.6 MHZ
Type GND Name GND Frequency 121.7 MHZ
Type TWR Name TWR Frequency 118.3 MHZ

 

AIRPORT NEAR NAVIGATION AIDS

Type VOR-DME Name Gran Canaria Frequency 112900 KHZ
Type VOR-DME Name Gran Canaria Frequency 115000 KHZ
Type TACAN Name Gran Canaria Frequency 115600 KHZ
Type NDB Name Gran Canaria Frequency 365 KHZ